CheckWX is a tool to help pilots better visualize weather data.  It is not intended as a substitute for an official pre-flight weather briefing.

14:43:42 UTC

KPAO METAR
Palo Alto Airport
Palo Alto, California, USA
Current

57 mins ago

KPAO 201347Z VRB04KT 7SM SCT016 BKN025 09/08 A2997
Observed
May-20 @ 13:47 UTC
Wind
  • Variable at 4 KTS
Visibility
7 SM
Flight Rules
MVFR
Cloud Levels
  • Scattered at 1,600' AGL
  • Broken at 2,500' AGL
Temperature
C / 48°F
Dewpoint
C / 46°F
Humidity
94%
Altimeter
29.97" Hg
Pressure
1014.92 hPa
Previous

11 hours ago

KPAO 200347Z 27005KT 10SM -RA BKN055 13/08 A2988 RMK LAST
Observed
May-20 @ 03:47 UTC
Wind
  • 270° at 5 KTS
Visibility
10 SM
Flight Rules
VFR
Conditions
Light Rain
Cloud Levels
  • Broken at 5,500' AGL
Temperature
13°C / 55°F
Dewpoint
C / 46°F
Humidity
72%
Altimeter
29.88" Hg
Pressure
1011.82 hPa
Previous

12 hours ago

KPAO 200247Z 27005KT 10SM VCSH BKN045 BKN060 13/08 A2985
Observed
May-20 @ 02:47 UTC
Wind
  • 270° at 5 KTS
Visibility
10 SM
Flight Rules
VFR
Cloud Levels
  • Broken at 4,500' AGL
  • Broken at 6,000' AGL
Temperature
13°C / 55°F
Dewpoint
C / 46°F
Humidity
72%
Altimeter
29.85" Hg
Pressure
1010.82 hPa